Delmita, TX (78536)

8:52 AM CDT on September 19, 2014 (GMT -0500)
El Coyote | Change Station
CLOSE
Current Station
Personal Weather Station
Location: Encino, TX
Elevation: 88 ft
Nearby Weather Stations

Elev 88 ft 26.84 °N, 98.18 °W | Updated 27 seconds ago

Overcast
Overcast
78.9 °F
Feels Like 83 °F
N
0.0
Wind Variable Wind from East
Gusts 0.0 mph

Today
High -- | Low -- °F
--% Chance of Precip.
Yesterday
High -- | Low -- °F
Precip. -- in
7:20 AM 7:33 PM
Waning Crescent, 19% visible
Pressure 29.84 in
Visibility 3.0 miles
Clouds Clear
Heat Index 83 °F
Dew Point 78 °F
Humidity 96%
Rainfall 0.00 in
Snow Depth Not available.
UV 0.7 out of 12
Pollen 10.50 out of 12
Air Quality Not available.
Flu Activity Not available.
METAR KEBG 191335Z AUTO 15003KT 3SM BR CLR 27/25 A2984 RMK AO2 T02700253

More Conditions Fewer Conditions

Pressure 29.84 in
Visibility 3.0 miles
Clouds Clear
Heat Index 83 °F
Dew Point 78 °F
Humidity 96%
Rainfall 0.00 in
Snow Depth Not available.
UV 0.7 out of 12
Pollen 10.50 out of 12
Air Quality Not available.
Flu Activity Not available.
METAR KEBG 191335Z AUTO 15003KT 3SM BR CLR 27/25 A2984 RMK AO2 T02700253

More Conditions Fewer Conditions

10-Day Weather Forecast

Almanac

Astronomy

Sep. 19, 2014 Rise Set
Actual Time 7:20 AM CDT 7:33 PM CDT
Civil Twilight 6:57 AM CDT 7:56 PM CDT
Nautical Twilight 6:30 AM CDT 8:23 PM CDT
Astronomical Twilight 6:03 AM CDT 8:50 PM CDT
Moon 3:26 AM CDT 4:46 PM CDT
Length of Visible Light 12h 58m
Length of Day
12h 12m
Tomorrow will be 1m 33s shorter.
Waning Crescent, 19% of the Moon is Illuminated
Today
Waning Crescent
Sep 24
New
Oct 1
First Quarter
Oct 8
Full
Oct 15
Last Quarter

Today's Extremes

State Highs State Lows

Community

WunderPhotos

Upload Photos

1,754,608 photos uploaded!

WunderBlogs® & News

Nearby

Snow Depth

Station Depth Elevation
No new snow has been reported.

Earthquake Activity

City Distance Mag. Time & Date
No recent earthquake activity has been reported nearby.
Minimum magnitude displayed is 2.5.

Coastal Water Temperatures

Place Temperature
No Stations Reporting

Nearby Weather Stations